createdAt,value
2018-10-11T00:00:44.368Z,16.10
2018-10-11T00:03:13.698Z,13.80
2018-10-11T00:05:42.796Z,16.00
2018-10-11T00:08:13.684Z,16.00
2018-10-11T00:10:43.034Z,15.70
2018-10-11T00:13:12.603Z,15.50
2018-10-11T00:15:42.331Z,15.40
2018-10-11T00:18:11.725Z,15.40
2018-10-11T00:20:42.591Z,15.40
2018-10-11T00:23:12.075Z,15.70
2018-10-11T00:25:41.719Z,15.60
2018-10-11T00:28:11.326Z,15.40
2018-10-11T00:30:40.508Z,15.20
2018-10-11T00:33:09.607Z,15.10
2018-10-11T00:35:38.802Z,15.20
2018-10-11T00:38:08.164Z,15.20
2018-10-11T00:40:37.704Z,15.30
2018-10-11T00:43:07.309Z,15.50
2018-10-11T00:45:36.510Z,15.70
2018-10-11T00:48:06.191Z,15.70
2018-10-11T00:50:35.247Z,15.50
2018-10-11T00:53:04.693Z,15.40
2018-10-11T00:55:33.935Z,15.20
2018-10-11T00:58:03.245Z,15.20
2018-10-11T01:00:32.459Z,15.30
2018-10-11T01:03:02.149Z,15.40
2018-10-11T01:05:31.712Z,15.30
2018-10-11T01:08:00.829Z,15.30
2018-10-11T01:10:30.091Z,15.00
2018-10-11T01:12:59.321Z,14.90
2018-10-11T01:15:28.394Z,15.00
2018-10-11T01:17:58.474Z,15.40
2018-10-11T01:20:28.837Z,15.40
2018-10-11T01:22:58.427Z,15.30
2018-10-11T01:25:28.622Z,15.20
2018-10-11T01:27:58.755Z,14.50
2018-10-11T01:30:28.775Z,14.90
2018-10-11T01:32:57.964Z,15.10
2018-10-11T01:35:28.042Z,15.40
2018-10-11T01:37:57.317Z,15.50
2018-10-11T01:40:26.775Z,15.50
2018-10-11T01:43:05.018Z,15.20
2018-10-11T01:45:34.827Z,15.20
2018-10-11T01:48:05.042Z,15.20
2018-10-11T01:50:37.254Z,15.10
2018-10-11T01:53:06.731Z,15.00
2018-10-11T01:55:35.959Z,15.00
2018-10-11T01:58:05.191Z,15.00
2018-10-11T02:00:34.335Z,15.00
2018-10-11T02:03:03.795Z,14.80
2018-10-11T02:05:33.137Z,14.70
2018-10-11T02:08:02.388Z,14.60
2018-10-11T02:10:31.523Z,14.50
2018-10-11T02:13:00.908Z,14.50
2018-10-11T02:15:30.210Z,14.80
2018-10-11T02:17:59.482Z,14.90
2018-10-11T02:20:29.120Z,15.10
2018-10-11T02:22:58.578Z,15.30
2018-10-11T02:25:27.708Z,15.40
2018-10-11T02:27:57.158Z,15.40
2018-10-11T02:30:26.247Z,15.40
2018-10-11T02:32:55.597Z,15.40
2018-10-11T02:35:24.805Z,15.40
2018-10-11T02:37:54.109Z,15.40
2018-10-11T02:40:24.779Z,15.40
2018-10-11T02:42:54.757Z,15.30
2018-10-11T02:45:24.377Z,15.30
2018-10-11T02:47:53.986Z,15.20
2018-10-11T02:50:23.625Z,15.20
2018-10-11T02:52:54.078Z,15.20
2018-10-11T02:55:26.243Z,15.30
2018-10-11T02:58:06.128Z,15.30
2018-10-11T03:00:35.869Z,15.30
2018-10-11T03:03:07.635Z,15.30
2018-10-11T03:05:38.743Z,15.30
2018-10-11T03:08:09.784Z,15.20
2018-10-11T03:10:39.975Z,15.10
2018-10-11T03:13:12.427Z,15.00
2018-10-11T03:15:42.354Z,15.00
2018-10-11T03:18:12.530Z,15.20
2018-10-11T03:20:42.626Z,15.30
2018-10-11T03:23:12.502Z,15.30
2018-10-11T03:25:42.600Z,18.50
2018-10-11T03:28:13.103Z,15.00
2018-10-11T03:30:42.820Z,14.90
2018-10-11T03:33:12.987Z,14.90
2018-10-11T03:35:43.570Z,14.80
2018-10-11T03:38:14.488Z,14.80
2018-10-11T03:40:43.899Z,14.70
2018-10-11T03:43:13.719Z,14.90
2018-10-11T03:45:42.951Z,15.10
2018-10-11T03:48:12.425Z,14.10
2018-10-11T03:50:41.759Z,15.40
2018-10-11T03:53:11.406Z,15.20
2018-10-11T03:55:40.545Z,15.30
2018-10-11T03:58:10.305Z,15.40
2018-10-11T04:00:40.111Z,15.50
2018-10-11T04:03:09.189Z,15.60
2018-10-11T04:05:38.381Z,15.30
2018-10-11T04:08:08.283Z,15.30
2018-10-11T04:10:37.985Z,15.30
2018-10-11T04:13:07.421Z,15.20
2018-10-11T04:15:38.533Z,15.20
2018-10-11T04:18:08.395Z,15.20
2018-10-11T04:20:38.628Z,15.20
2018-10-11T04:23:08.569Z,15.20
2018-10-11T04:25:37.679Z,15.20
2018-10-11T04:28:07.404Z,15.10
2018-10-11T04:30:37.226Z,15.20
2018-10-11T04:33:06.403Z,15.40
2018-10-11T04:35:35.754Z,15.50
2018-10-11T04:38:04.929Z,15.60
2018-10-11T04:40:34.351Z,15.70
2018-10-11T04:43:03.735Z,15.70
2018-10-11T04:45:32.822Z,15.80
2018-10-11T04:48:02.151Z,15.80
2018-10-11T04:50:32.115Z,15.90
2018-10-11T04:53:01.293Z,15.90
2018-10-11T04:55:38.917Z,15.80
2018-10-11T04:58:08.150Z,15.80
2018-10-11T05:00:37.623Z,15.80
2018-10-11T05:03:07.571Z,15.90
2018-10-11T05:05:36.864Z,15.90
2018-10-11T05:08:06.263Z,16.00
2018-10-11T05:10:36.002Z,15.90
2018-10-11T05:13:06.039Z,15.90
2018-10-11T05:15:36.828Z,15.80
2018-10-11T05:18:13.954Z,15.70
2018-10-11T05:20:45.012Z,15.80
2018-10-11T05:23:14.697Z,15.80
2018-10-11T05:25:44.226Z,15.80
2018-10-11T05:28:14.405Z,15.80
2018-10-11T05:30:47.006Z,15.70
2018-10-11T05:33:50.471Z,18.70
2018-10-11T05:36:19.680Z,15.60
2018-10-11T05:38:54.543Z,15.70
2018-10-11T05:41:39.111Z,15.60
2018-10-11T05:44:08.584Z,15.40
2018-10-11T05:46:39.706Z,15.40
2018-10-11T05:49:12.103Z,15.30
2018-10-11T05:51:41.894Z,15.40
2018-10-11T05:54:16.040Z,15.50
2018-10-11T05:56:51.365Z,15.70
2018-10-11T05:59:21.328Z,15.70
2018-10-11T06:01:51.172Z,15.80
2018-10-11T06:04:22.186Z,15.80
2018-10-11T06:06:51.820Z,15.70
2018-10-11T06:09:21.901Z,15.60
2018-10-11T06:11:53.268Z,15.70
2018-10-11T06:14:25.565Z,15.70
2018-10-11T06:17:08.739Z,15.70
2018-10-11T06:19:42.917Z,15.90
2018-10-11T06:22:20.209Z,16.00
2018-10-11T06:24:50.468Z,16.10
2018-10-11T06:27:20.911Z,16.10
2018-10-11T06:29:51.970Z,16.00
2018-10-11T06:32:27.113Z,16.10
2018-10-11T06:34:56.653Z,16.10
2018-10-11T06:37:29.280Z,16.10
2018-10-11T06:40:01.053Z,16.10
2018-10-11T06:42:32.829Z,16.20
2018-10-11T06:45:05.033Z,16.30
2018-10-11T06:47:34.854Z,16.30
2018-10-11T06:50:05.132Z,19.00
2018-10-11T06:52:35.569Z,16.40
2018-10-11T06:55:06.589Z,16.30
2018-10-11T06:57:35.742Z,16.40
2018-10-11T07:00:06.242Z,16.40
2018-10-11T07:02:40.120Z,16.50
2018-10-11T07:05:10.765Z,16.50
2018-10-11T07:07:40.837Z,16.60
2018-10-11T07:10:10.541Z,16.60
2018-10-11T07:12:40.255Z,13.70
2018-10-11T07:15:09.871Z,16.60
2018-10-11T07:17:43.567Z,16.60
2018-10-11T07:20:17.943Z,16.60
2018-10-11T07:22:59.198Z,16.70
2018-10-11T07:25:37.223Z,16.70
2018-10-11T07:28:16.480Z,16.80
2018-10-11T07:30:53.026Z,16.90
2018-10-11T07:33:28.782Z,17.00
2018-10-11T07:35:58.755Z,17.10
2018-10-11T07:38:37.680Z,17.40
2018-10-11T07:41:10.202Z,17.60
2018-10-11T07:43:39.430Z,15.10
2018-10-11T07:46:09.656Z,17.90
2018-10-11T07:48:39.172Z,19.60
2018-10-11T07:51:10.637Z,18.20
2018-10-11T07:53:44.826Z,18.40
2018-10-11T07:56:14.301Z,18.60
2018-10-11T07:58:50.703Z,18.70
2018-10-11T08:01:20.170Z,18.80
2018-10-11T08:03:50.208Z,18.80
2018-10-11T08:06:27.588Z,18.90
2018-10-11T08:08:57.106Z,18.90
2018-10-11T08:11:28.790Z,18.90
2018-10-11T08:13:58.220Z,19.00
2018-10-11T08:16:28.874Z,19.10
2018-10-11T08:19:00.220Z,19.10
2018-10-11T08:21:30.764Z,19.30
2018-10-11T08:24:00.192Z,19.30
2018-10-11T08:26:30.161Z,19.50
2018-10-11T08:29:00.087Z,19.50
2018-10-11T08:31:29.600Z,19.70
2018-10-11T08:34:00.587Z,19.50
2018-10-11T08:36:31.590Z,19.60
2018-10-11T08:39:01.897Z,19.70
2018-10-11T08:41:32.047Z,19.80
2018-10-11T08:44:04.871Z,19.70
2018-10-11T08:46:35.683Z,19.80
2018-10-11T08:49:06.319Z,19.90
2018-10-11T08:51:37.389Z,20.10
2018-10-11T08:54:13.515Z,20.00
2018-10-11T08:56:43.202Z,19.70
2018-10-11T08:59:16.854Z,19.70
2018-10-11T09:01:46.923Z,19.60
2018-10-11T09:04:16.749Z,19.60
2018-10-11T09:06:51.146Z,19.60
2018-10-11T09:09:26.572Z,19.50
2018-10-11T09:11:56.867Z,19.60
2018-10-11T09:14:32.084Z,19.80
2018-10-11T09:17:06.398Z,19.90
2018-10-11T09:19:39.340Z,19.20
2018-10-11T09:22:12.518Z,19.60
2018-10-11T09:24:41.831Z,19.70
2018-10-11T09:27:11.703Z,19.70
2018-10-11T09:29:41.927Z,19.60
2018-10-11T09:34:50.825Z,19.80
2018-10-11T09:37:20.108Z,19.90
2018-10-11T09:39:50.211Z,19.70
2018-10-11T09:42:20.380Z,19.80
2018-10-11T09:44:50.360Z,19.90
2018-10-11T09:47:20.351Z,20.00
2018-10-11T09:49:50.114Z,20.20
2018-10-11T09:52:19.599Z,19.20
2018-10-11T09:54:52.740Z,20.30
2018-10-11T09:57:24.660Z,20.40
2018-10-11T09:59:57.230Z,20.50
2018-10-11T10:02:28.176Z,20.70
2018-10-11T10:05:02.831Z,20.90
2018-10-11T10:07:33.137Z,21.00
2018-10-11T10:10:03.659Z,20.70
2018-10-11T10:12:34.125Z,20.60
2018-10-11T10:15:12.289Z,20.70
2018-10-11T10:17:41.639Z,20.70
2018-10-11T10:20:14.491Z,21.00
2018-10-11T10:22:44.469Z,21.10
2018-10-11T10:25:15.362Z,21.20
2018-10-11T10:28:24.653Z,21.40
2018-10-11T10:30:55.351Z,21.70
2018-10-11T10:33:49.800Z,22.90
2018-10-11T10:36:20.129Z,21.60
2018-10-11T10:39:37.356Z,21.60
2018-10-11T10:42:11.875Z,21.70
2018-10-11T10:45:09.054Z,21.80
2018-10-11T10:47:40.311Z,22.00
2018-10-11T10:50:46.548Z,22.20
2018-10-11T10:53:17.599Z,22.00
2018-10-11T10:56:38.371Z,21.80
2018-10-11T10:59:13.320Z,21.80
2018-10-11T11:02:01.905Z,22.00
2018-10-11T11:04:33.005Z,22.20
2018-10-11T11:07:36.788Z,20.00
2018-10-11T11:10:15.117Z,22.30
2018-10-11T11:13:12.740Z,22.30
2018-10-11T11:15:55.102Z,22.40
2018-10-11T11:18:57.628Z,22.40
2018-10-11T11:21:44.353Z,22.50
2018-10-11T11:27:41.718Z,22.60
2018-10-11T11:33:32.530Z,22.50
2018-10-11T11:36:03.444Z,22.60
2018-10-11T11:38:59.751Z,22.60
2018-10-11T11:41:30.986Z,22.60
2018-10-11T11:44:42.869Z,22.50
2018-10-11T11:47:13.129Z,22.60
2018-10-11T11:50:32.472Z,22.70
2018-10-11T11:53:02.478Z,22.70
2018-10-11T11:56:12.391Z,22.50
2018-10-11T11:58:43.031Z,22.50
2018-10-11T12:01:30.638Z,22.70
2018-10-11T12:04:07.459Z,22.90
2018-10-11T12:06:38.937Z,23.00
2018-10-11T12:09:58.821Z,25.20
2018-10-11T12:13:06.802Z,23.10
2018-10-11T12:16:03.901Z,23.00
2018-10-11T12:18:34.425Z,23.00
2018-10-11T12:21:39.296Z,23.10
2018-10-11T12:24:11.472Z,23.00
2018-10-11T12:26:45.352Z,23.00
2018-10-11T12:29:15.487Z,23.10
2018-10-11T12:31:45.807Z,23.10
2018-10-11T12:34:17.729Z,25.00
2018-10-11T12:36:48.321Z,23.20
2018-10-11T12:39:49.303Z,23.30
2018-10-11T12:42:22.605Z,23.30
2018-10-11T12:45:19.539Z,23.40
2018-10-11T12:47:50.682Z,23.50
2018-10-11T12:51:11.012Z,23.60
2018-10-11T12:53:44.330Z,23.70
2018-10-11T12:56:37.682Z,23.80
2018-10-11T12:59:19.265Z,23.80
2018-10-11T13:01:49.611Z,23.90
2018-10-11T13:04:23.564Z,23.90
2018-10-11T13:06:56.874Z,23.80
2018-10-11T13:09:29.142Z,23.90
2018-10-11T13:12:00.758Z,23.90
2018-10-11T13:14:35.506Z,24.00
2018-10-11T13:17:09.789Z,24.10
2018-10-11T13:19:40.179Z,24.10
2018-10-11T13:22:10.735Z,24.10
2018-10-11T13:24:45.996Z,24.20
2018-10-11T13:27:15.586Z,24.20
2018-10-11T13:29:47.389Z,24.20
2018-10-11T13:32:17.915Z,24.20
2018-10-11T13:34:49.687Z,24.30
2018-10-11T13:37:36.796Z,24.30
2018-10-11T13:40:07.675Z,24.40
2018-10-11T13:42:52.103Z,24.50
2018-10-11T13:45:22.424Z,24.60
2018-10-11T13:47:53.450Z,24.70
2018-10-11T13:50:27.713Z,24.80
2018-10-11T13:52:58.469Z,24.80
2018-10-11T13:55:33.326Z,24.80
2018-10-11T13:58:03.732Z,24.70
2018-10-11T14:00:34.845Z,24.60
2018-10-11T14:03:07.274Z,24.50
2018-10-11T14:05:44.809Z,24.60
2018-10-11T14:08:17.478Z,24.50
2018-10-11T14:10:47.715Z,24.50
2018-10-11T14:13:20.779Z,24.50
2018-10-11T14:15:52.760Z,24.40
2018-10-11T14:18:22.702Z,24.30
2018-10-11T14:20:59.523Z,24.30
2018-10-11T14:23:34.238Z,24.10
2018-10-11T14:26:04.189Z,24.10
2018-10-11T14:28:35.290Z,24.10
2018-10-11T14:31:06.539Z,23.90
2018-10-11T14:33:37.570Z,23.80
2018-10-11T14:36:09.021Z,23.70
2018-10-11T14:38:39.331Z,23.80
2018-10-11T14:41:10.021Z,23.70
2018-10-11T14:43:39.825Z,23.70
2018-10-11T14:46:11.688Z,23.60
2018-10-11T14:48:44.498Z,23.60
2018-10-11T14:51:14.341Z,23.40
2018-10-11T14:53:45.511Z,23.20
2018-10-11T14:56:15.795Z,23.20
2018-10-11T14:58:45.622Z,23.20
2018-10-11T15:01:24.757Z,21.70
2018-10-11T15:03:56.796Z,23.20
2018-10-11T15:06:29.424Z,23.30
2018-10-11T15:09:00.191Z,23.40
2018-10-11T15:11:45.023Z,23.60
2018-10-11T15:14:36.290Z,23.70
2018-10-11T15:17:13.483Z,23.70
2018-10-11T15:19:50.651Z,23.80
2018-10-11T15:22:30.669Z,23.90
2018-10-11T15:25:22.214Z,24.00
2018-10-11T15:28:01.638Z,24.00
2018-10-11T15:30:42.450Z,23.90
2018-10-11T15:33:22.242Z,23.90
2018-10-11T15:35:58.378Z,23.80
2018-10-11T15:38:34.742Z,23.70
2018-10-11T15:41:13.122Z,23.70
2018-10-11T15:43:50.622Z,23.70
2018-10-11T15:46:22.775Z,23.60
2018-10-11T15:48:55.277Z,23.60
2018-10-11T15:51:26.759Z,23.60
2018-10-11T15:53:58.747Z,21.90
2018-10-11T15:56:31.988Z,23.40
2018-10-11T15:59:04.168Z,23.40
2018-10-11T16:01:36.012Z,23.30
2018-10-11T16:04:09.735Z,23.20
2018-10-11T16:06:41.394Z,23.10
2018-10-11T16:09:11.597Z,22.90
2018-10-11T16:11:46.221Z,22.90
2018-10-11T16:14:21.633Z,22.80
2018-10-11T16:16:55.545Z,22.70
2018-10-11T16:19:27.427Z,22.60
2018-10-11T16:21:59.056Z,22.50
2018-10-11T16:24:29.422Z,22.40
2018-10-11T16:26:59.759Z,22.40
2018-10-11T16:29:30.421Z,22.30
2018-10-11T16:32:02.521Z,22.30
2018-10-11T16:34:34.547Z,22.20
2018-10-11T16:37:04.796Z,22.10
2018-10-11T16:39:38.146Z,22.10
2018-10-11T16:42:08.803Z,22.00
2018-10-11T16:44:38.824Z,21.90
2018-10-11T16:47:09.620Z,21.90
2018-10-11T16:49:42.273Z,21.80
2018-10-11T16:52:12.522Z,21.70
2018-10-11T16:54:45.281Z,21.70
2018-10-11T16:57:17.054Z,21.60
2018-10-11T16:59:47.934Z,21.60
2018-10-11T17:02:35.034Z,21.20
2018-10-11T17:05:38.353Z,21.40
2018-10-11T17:08:11.770Z,21.40
2018-10-11T17:10:44.407Z,21.30
2018-10-11T17:13:17.135Z,21.30
2018-10-11T17:15:47.152Z,21.30
2018-10-11T17:18:19.530Z,21.20
2018-10-11T17:20:51.036Z,21.20
2018-10-11T17:25:31.490Z,21.20
2018-10-11T17:28:02.865Z,21.10
2018-10-11T17:31:21.666Z,21.00
2018-10-11T17:33:54.019Z,20.90
2018-10-11T17:36:25.149Z,20.80
2018-10-11T17:38:55.443Z,20.80
2018-10-11T17:41:28.454Z,20.70
2018-10-11T17:43:59.742Z,20.70
2018-10-11T17:46:32.325Z,20.70
2018-10-11T17:53:11.749Z,20.50
2018-10-11T17:56:15.342Z,20.50
2018-10-11T17:58:45.590Z,20.50
2018-10-11T18:01:54.728Z,20.40
2018-10-11T18:04:26.386Z,20.30
2018-10-11T18:06:57.371Z,20.40
2018-10-11T18:09:28.519Z,20.40
2018-10-11T18:12:00.409Z,20.50
2018-10-11T18:14:31.461Z,20.40
2018-10-11T18:17:02.264Z,20.50
2018-10-11T18:20:08.179Z,20.40
2018-10-11T18:22:41.505Z,20.40
2018-10-11T18:25:15.246Z,20.40
2018-10-11T18:27:51.225Z,20.20
2018-10-11T18:30:23.806Z,20.10
2018-10-11T18:32:57.529Z,20.00
2018-10-11T18:35:29.323Z,20.00
2018-10-11T18:37:59.656Z,20.10
2018-10-11T18:41:08.930Z,20.10
2018-10-11T18:43:43.428Z,20.10
2018-10-11T18:46:42.193Z,19.90
2018-10-11T18:49:13.441Z,20.00
2018-10-11T18:52:22.165Z,19.90
2018-10-11T18:54:53.647Z,19.80
2018-10-11T18:57:50.665Z,19.90
2018-10-11T19:00:23.999Z,19.80
2018-10-11T19:03:46.101Z,19.80
2018-10-11T19:06:16.498Z,19.80
2018-10-11T19:09:23.836Z,19.80
2018-10-11T19:11:55.208Z,19.80
2018-10-11T19:14:58.214Z,19.80
2018-10-11T19:18:31.154Z,19.70
2018-10-11T19:21:02.024Z,19.70
2018-10-11T19:24:05.798Z,19.60
2018-10-11T19:26:37.764Z,19.60
2018-10-11T19:29:54.621Z,19.40
2018-10-11T19:32:33.964Z,19.30
2018-10-11T19:35:04.393Z,19.10
2018-10-11T19:38:20.449Z,19.00
2018-10-11T19:40:51.860Z,19.00
2018-10-11T19:43:21.854Z,18.80
2018-10-11T19:45:55.292Z,17.10
2018-10-11T19:48:29.850Z,18.80
2018-10-11T19:51:27.572Z,18.80
2018-10-11T19:53:58.115Z,18.70
2018-10-11T19:56:28.271Z,17.20
2018-10-11T19:58:58.805Z,18.70
2018-10-11T20:01:29.604Z,18.50
2018-10-11T20:04:00.544Z,18.40
2018-10-11T20:06:32.361Z,18.40
2018-10-11T20:09:06.429Z,18.40
2018-10-11T20:11:36.680Z,18.40
2018-10-11T20:14:40.109Z,21.00
2018-10-11T20:17:10.374Z,18.30
2018-10-11T20:19:41.382Z,18.40
2018-10-11T20:22:12.720Z,18.50
2018-10-11T20:24:45.936Z,17.00
2018-10-11T20:27:17.485Z,18.50
2018-10-11T20:30:26.773Z,18.40
2018-10-11T20:32:58.367Z,18.40
2018-10-11T20:36:10.811Z,18.50
2018-10-11T20:38:40.503Z,18.50
2018-10-11T20:41:12.267Z,19.70
2018-10-11T20:44:31.331Z,18.10
2018-10-11T20:47:04.312Z,15.80
2018-10-11T20:49:34.669Z,17.70
2018-10-11T20:52:08.490Z,17.60
2018-10-11T20:54:39.519Z,17.60
2018-10-11T20:57:11.773Z,17.70
2018-10-11T20:59:42.580Z,17.70
2018-10-11T21:02:14.330Z,17.80
2018-10-11T21:04:47.656Z,17.80
2018-10-11T21:07:20.086Z,17.90
2018-10-11T21:09:51.597Z,18.00
2018-10-11T21:12:21.677Z,18.10
2018-10-11T21:15:40.456Z,18.00
2018-10-11T21:18:14.349Z,18.00
2018-10-11T21:21:20.765Z,18.00
2018-10-11T21:23:52.795Z,15.30
2018-10-11T21:26:22.777Z,18.30
2018-10-11T21:32:13.262Z,18.10
2018-10-11T21:34:43.660Z,17.90
2018-10-11T21:37:14.007Z,17.90
2018-10-11T21:39:46.188Z,18.00
2018-10-11T21:42:15.861Z,18.00
2018-10-11T21:44:45.812Z,17.80
2018-10-11T21:47:15.748Z,17.70
2018-10-11T21:50:34.752Z,17.60
2018-10-11T21:53:04.585Z,17.60
2018-10-11T21:55:34.507Z,17.70
2018-10-11T21:58:34.454Z,17.80
2018-10-11T22:01:09.257Z,18.00
2018-10-11T22:03:39.516Z,17.90
2018-10-11T22:06:16.493Z,17.90
2018-10-11T22:08:47.341Z,18.00
2018-10-11T22:11:17.755Z,17.90
2018-10-11T22:14:22.269Z,18.00
2018-10-11T22:16:55.708Z,18.10
2018-10-11T22:19:25.767Z,18.10
2018-10-11T22:21:55.544Z,18.00
2018-10-11T22:24:25.356Z,18.10
2018-10-11T22:27:37.269Z,18.10
2018-10-11T22:30:07.248Z,18.10
2018-10-11T22:32:36.937Z,18.20
2018-10-11T22:35:53.937Z,18.10
2018-10-11T22:38:23.743Z,18.10
2018-10-11T22:40:54.478Z,18.10
2018-10-11T22:43:24.143Z,18.10
2018-10-11T22:45:54.349Z,18.10
2018-10-11T22:48:25.781Z,18.10
2018-10-11T22:50:55.597Z,18.10
2018-10-11T22:53:25.301Z,18.10
2018-10-11T22:56:24.636Z,18.10
2018-10-11T22:58:54.523Z,18.20
2018-10-11T23:01:24.718Z,18.10
2018-10-11T23:03:54.441Z,18.20
2018-10-11T23:06:24.102Z,18.20
2018-10-11T23:08:54.753Z,17.60
2018-10-11T23:11:25.479Z,18.20
2018-10-11T23:13:57.156Z,18.20
2018-10-11T23:16:26.894Z,18.20
2018-10-11T23:18:57.122Z,18.20
2018-10-11T23:21:27.844Z,18.10
2018-10-11T23:23:59.556Z,18.20
2018-10-11T23:26:29.756Z,18.10
2018-10-11T23:28:59.385Z,18.00
2018-10-11T23:31:30.571Z,18.00
2018-10-11T23:34:00.281Z,18.00
2018-10-11T23:36:30.353Z,16.10
2018-10-11T23:39:00.253Z,17.90
2018-10-11T23:41:33.126Z,17.90
2018-10-11T23:44:02.833Z,18.00
2018-10-11T23:46:32.631Z,17.90
2018-10-11T23:49:03.757Z,19.80
2018-10-11T23:51:33.668Z,18.50
2018-10-11T23:54:03.424Z,18.00
2018-10-11T23:56:33.117Z,17.90
2018-10-11T23:59:02.853Z,17.90
